createdAt,value
2023-04-02T00:01:52.435Z,62.72
2023-04-02T00:04:23.504Z,62.80
2023-04-02T00:06:58.282Z,62.87
2023-04-02T00:09:31.352Z,62.79
2023-04-02T00:12:00.882Z,62.98
2023-04-02T00:14:30.456Z,63.12
2023-04-02T00:16:59.924Z,63.14
2023-04-02T00:19:49.346Z,63.11
2023-04-02T00:22:20.916Z,63.20
2023-04-02T00:24:53.251Z,63.24
2023-04-02T00:27:21.787Z,63.36
2023-04-02T00:29:50.981Z,63.41
2023-04-02T00:32:29.653Z,63.30
2023-04-02T00:34:58.124Z,63.52
2023-04-02T00:37:28.374Z,63.51
2023-04-02T00:39:59.046Z,63.50
2023-04-02T00:42:27.487Z,63.52
2023-04-02T00:44:56.166Z,63.51
2023-04-02T00:47:27.087Z,63.47
2023-04-02T00:49:58.928Z,63.66
2023-04-02T00:52:28.143Z,63.63
2023-04-02T00:55:20.237Z,63.69
2023-04-02T00:57:49.663Z,63.67
2023-04-02T01:00:22.737Z,63.70
2023-04-02T01:03:11.444Z,63.78
2023-04-02T01:05:39.518Z,63.74
2023-04-02T01:08:22.762Z,63.84
2023-04-02T01:11:09.402Z,63.91
2023-04-02T01:13:41.013Z,63.94
2023-04-02T01:16:14.816Z,63.86
2023-04-02T01:18:58.556Z,63.88
2023-04-02T01:21:30.949Z,63.81
2023-04-02T01:24:04.595Z,63.89
2023-04-02T01:26:51.582Z,63.99
2023-04-02T01:29:21.150Z,64.02
2023-04-02T01:31:49.714Z,63.95
2023-04-02T01:34:20.294Z,63.95
2023-04-02T01:37:06.480Z,63.96
2023-04-02T01:39:34.559Z,63.88
2023-04-02T01:42:02.087Z,63.82
2023-04-02T01:44:39.975Z,63.72
2023-04-02T01:47:10.693Z,63.97
2023-04-02T01:49:40.647Z,63.88
2023-04-02T01:52:09.385Z,63.87
2023-04-02T01:54:38.023Z,63.72
2023-04-02T01:57:06.215Z,63.81
2023-04-02T01:59:33.934Z,63.78
2023-04-02T02:02:10.231Z,63.92
2023-04-02T02:04:39.801Z,63.88
2023-04-02T02:07:14.901Z,63.96
2023-04-02T02:09:44.594Z,63.92
2023-04-02T02:12:14.019Z,63.97
2023-04-02T02:14:48.466Z,63.98
2023-04-02T02:17:17.790Z,64.04
2023-04-02T02:19:52.484Z,64.12
2023-04-02T02:22:28.696Z,64.18
2023-04-02T02:24:57.996Z,64.25
2023-04-02T02:27:40.974Z,64.37
2023-04-02T02:30:16.940Z,64.43
2023-04-02T02:32:54.244Z,64.33
2023-04-02T02:35:24.495Z,64.50
2023-04-02T02:37:57.928Z,64.45
2023-04-02T02:40:37.153Z,64.54
2023-04-02T02:43:06.781Z,64.65
2023-04-02T02:45:38.118Z,64.59
2023-04-02T02:48:10.667Z,64.65
2023-04-02T02:50:38.718Z,64.69
2023-04-02T02:53:16.145Z,64.65
2023-04-02T02:55:43.924Z,64.62
2023-04-02T02:58:23.826Z,64.54
2023-04-02T03:01:05.008Z,64.56
2023-04-02T03:03:35.303Z,64.68
2023-04-02T03:06:07.553Z,64.67
2023-04-02T03:09:01.024Z,64.59
2023-04-02T03:11:46.495Z,64.63
2023-04-02T03:14:39.454Z,64.76
2023-04-02T03:17:13.469Z,64.64
2023-04-02T03:19:41.665Z,64.84
2023-04-02T03:22:14.792Z,64.86
2023-04-02T03:24:53.619Z,64.96
2023-04-02T03:27:24.270Z,64.96
2023-04-02T03:30:04.168Z,65.02
2023-04-02T03:32:38.303Z,64.90
2023-04-02T03:35:12.435Z,65.01
2023-04-02T03:37:46.208Z,65.11
2023-04-02T03:40:25.063Z,65.01
2023-04-02T03:43:13.148Z,64.97
2023-04-02T03:45:42.224Z,65.03
2023-04-02T03:48:18.594Z,64.84
2023-04-02T03:50:46.918Z,64.79
2023-04-02T03:53:14.528Z,64.59
2023-04-02T03:55:43.264Z,64.56
2023-04-02T03:58:13.748Z,64.42
2023-04-02T04:00:56.720Z,64.36
2023-04-02T04:03:37.638Z,64.32
2023-04-02T04:06:11.841Z,64.20
2023-04-02T04:08:51.920Z,64.14
2023-04-02T04:11:22.952Z,64.18
2023-04-02T04:13:56.447Z,64.01
2023-04-02T04:16:31.869Z,63.89
2023-04-02T04:19:11.033Z,63.75
2023-04-02T04:21:39.773Z,63.83
2023-04-02T04:24:20.493Z,63.77
2023-04-02T04:26:56.519Z,63.91
2023-04-02T04:29:24.648Z,63.90
2023-04-02T04:31:56.746Z,64.00
2023-04-02T04:34:37.218Z,63.83
2023-04-02T04:37:07.956Z,63.91
2023-04-02T04:39:44.114Z,63.83
2023-04-02T04:42:18.373Z,63.91
2023-04-02T04:44:55.748Z,63.87
2023-04-02T04:47:31.054Z,63.71
2023-04-02T04:50:14.119Z,63.84
2023-04-02T04:52:43.168Z,63.82
2023-04-02T04:55:38.329Z,63.97
2023-04-02T04:58:15.151Z,63.79
2023-04-02T05:00:50.134Z,63.92
2023-04-02T05:03:24.851Z,63.87
2023-04-02T05:05:52.934Z,63.79
2023-04-02T05:08:27.510Z,63.62
2023-04-02T05:11:11.784Z,63.44
2023-04-02T05:14:18.255Z,63.20
2023-04-02T05:16:51.264Z,63.49
2023-04-02T05:19:26.236Z,63.36
2023-04-02T05:22:26.405Z,63.24
2023-04-02T05:25:12.808Z,63.48
2023-04-02T05:27:59.501Z,63.31
2023-04-02T05:30:27.822Z,63.29
2023-04-02T05:33:08.029Z,63.39
2023-04-02T05:35:38.047Z,63.17
2023-04-02T05:38:06.690Z,63.30
2023-04-02T05:40:38.529Z,63.51
2023-04-02T05:43:09.368Z,63.45
2023-04-02T05:45:42.878Z,63.57
2023-04-02T05:48:18.818Z,63.52
2023-04-02T05:50:51.851Z,63.61
2023-04-02T05:53:28.428Z,63.24
2023-04-02T05:55:57.405Z,63.11
2023-04-02T05:58:37.318Z,63.25
2023-04-02T06:01:41.959Z,63.23
2023-04-02T06:04:47.507Z,62.98
2023-04-02T06:07:18.256Z,63.04
2023-04-02T06:10:12.194Z,62.73
2023-04-02T06:12:53.868Z,62.46
2023-04-02T06:15:22.966Z,62.07
2023-04-02T06:18:07.282Z,62.05
2023-04-02T06:20:36.075Z,61.93
2023-04-02T06:23:03.323Z,62.35
2023-04-02T06:25:35.499Z,62.05
2023-04-02T06:28:05.386Z,61.70
2023-04-02T06:30:34.941Z,61.31
2023-04-02T06:33:04.829Z,60.91
2023-04-02T06:35:36.112Z,60.26
2023-04-02T06:38:06.520Z,59.88
2023-04-02T06:40:40.675Z,59.43
2023-04-02T06:43:33.494Z,59.31
2023-04-02T06:46:32.847Z,59.42
2023-04-02T06:49:15.212Z,59.33
2023-04-02T06:51:45.071Z,58.64
2023-04-02T06:54:15.704Z,58.61
2023-04-02T06:56:46.426Z,58.13
2023-04-02T06:59:19.155Z,57.93
2023-04-02T07:01:53.424Z,57.75
2023-04-02T07:04:21.892Z,58.10
2023-04-02T07:06:52.067Z,58.77
2023-04-02T07:09:22.795Z,59.04
2023-04-02T07:11:54.833Z,58.89
2023-04-02T07:14:22.288Z,58.90
2023-04-02T07:16:49.456Z,58.89
2023-04-02T07:19:19.210Z,59.06
2023-04-02T07:21:47.837Z,58.96
2023-04-02T07:24:16.177Z,58.47
2023-04-02T07:26:43.872Z,58.48
2023-04-02T07:29:14.406Z,58.64
2023-04-02T07:31:42.172Z,58.79
2023-04-02T07:34:09.777Z,58.89
2023-04-02T07:36:37.237Z,59.01
2023-04-02T07:39:04.592Z,59.03
2023-04-02T07:41:31.790Z,58.87
2023-04-02T07:43:59.218Z,58.95
2023-04-02T07:46:26.761Z,58.76
2023-04-02T07:48:54.337Z,58.94
2023-04-02T07:51:23.493Z,58.76
2023-04-02T07:53:56.403Z,58.43
2023-04-02T07:56:24.893Z,58.21
2023-04-02T07:58:52.441Z,58.09
2023-04-02T08:01:21.493Z,58.13
2023-04-02T08:03:50.405Z,58.22
2023-04-02T08:06:18.581Z,58.43
2023-04-02T08:08:46.095Z,58.77
2023-04-02T08:11:13.350Z,58.60
2023-04-02T08:13:40.868Z,58.51
2023-04-02T08:16:08.496Z,58.38
2023-04-02T08:18:36.309Z,58.21
2023-04-02T08:21:06.638Z,58.19
2023-04-02T08:23:35.311Z,58.15
2023-04-02T08:26:03.301Z,58.14
2023-04-02T08:28:30.746Z,58.24
2023-04-02T08:30:58.327Z,58.20
2023-04-02T08:33:26.346Z,58.24
2023-04-02T08:35:53.976Z,58.44
2023-04-02T08:38:22.084Z,58.47
2023-04-02T08:40:51.158Z,58.42
2023-04-02T08:43:24.586Z,58.08
2023-04-02T08:45:52.256Z,58.17
2023-04-02T08:48:20.453Z,58.23
2023-04-02T08:50:48.006Z,58.41
2023-04-02T08:53:24.849Z,58.45
2023-04-02T08:55:52.730Z,58.56
2023-04-02T08:58:32.421Z,58.58
2023-04-02T09:01:02.409Z,58.29
2023-04-02T09:03:30.004Z,58.26
2023-04-02T09:05:58.837Z,58.52
2023-04-02T09:08:27.184Z,58.75
2023-04-02T09:11:09.927Z,58.54
2023-04-02T09:13:41.225Z,58.28
2023-04-02T09:16:12.280Z,58.07
2023-04-02T09:18:40.168Z,57.86
2023-04-02T09:21:28.656Z,57.81
2023-04-02T09:23:56.369Z,57.93
2023-04-02T09:26:25.153Z,57.77
2023-04-02T09:28:53.947Z,57.74
2023-04-02T09:31:25.074Z,57.30
2023-04-02T09:33:54.893Z,57.40
2023-04-02T09:36:28.610Z,57.49
2023-04-02T09:39:01.585Z,57.62
2023-04-02T09:41:30.137Z,57.61
2023-04-02T09:44:13.879Z,57.82
2023-04-02T09:46:53.972Z,57.66
2023-04-02T09:49:23.111Z,57.52
2023-04-02T09:52:13.869Z,57.60
2023-04-02T09:54:44.449Z,57.77
2023-04-02T09:57:24.844Z,57.92
2023-04-02T10:00:14.611Z,58.12
2023-04-02T10:03:08.930Z,57.71
2023-04-02T10:05:40.909Z,57.44
2023-04-02T10:08:15.442Z,57.34
2023-04-02T10:10:45.186Z,57.03
2023-04-02T10:13:32.800Z,57.24
2023-04-02T10:16:00.573Z,56.97
2023-04-02T10:18:28.474Z,56.76
2023-04-02T10:20:57.633Z,56.36
2023-04-02T10:23:27.395Z,55.89
2023-04-02T10:26:23.502Z,55.59
2023-04-02T10:29:00.587Z,55.64
2023-04-02T10:31:33.596Z,55.18
2023-04-02T10:34:03.895Z,54.92
2023-04-02T10:36:34.346Z,55.15
2023-04-02T10:39:01.714Z,54.76
2023-04-02T10:41:43.080Z,54.59
2023-04-02T10:44:19.626Z,54.15
2023-04-02T10:46:48.373Z,54.37
2023-04-02T10:49:22.179Z,53.98
2023-04-02T10:51:53.533Z,53.38
2023-04-02T10:54:39.496Z,52.91
2023-04-02T10:57:10.269Z,52.63
2023-04-02T10:59:39.965Z,52.30
2023-04-02T11:02:18.911Z,51.37
2023-04-02T11:04:47.241Z,51.89
2023-04-02T11:07:17.647Z,51.99
2023-04-02T11:09:48.112Z,52.25
2023-04-02T11:12:41.775Z,52.20
2023-04-02T11:15:19.887Z,51.64
2023-04-02T11:17:47.476Z,51.45
2023-04-02T11:20:35.532Z,51.32
2023-04-02T11:23:09.989Z,50.96
2023-04-02T11:25:37.505Z,50.94
2023-04-02T11:28:20.320Z,51.85
2023-04-02T11:30:48.340Z,52.01
2023-04-02T11:33:43.118Z,52.16
2023-04-02T11:36:30.401Z,52.33
2023-04-02T11:39:04.568Z,52.71
2023-04-02T11:41:53.710Z,52.58
2023-04-02T11:44:25.180Z,52.60
2023-04-02T11:46:52.592Z,53.17
2023-04-02T11:49:39.950Z,52.89
2023-04-02T11:52:20.828Z,53.29
2023-04-02T11:54:56.033Z,53.20
2023-04-02T11:57:37.725Z,53.20
2023-04-02T12:00:08.091Z,53.61
2023-04-02T12:02:45.856Z,53.68
2023-04-02T12:05:26.434Z,54.01
2023-04-02T12:07:56.844Z,53.92
2023-04-02T12:10:28.196Z,53.83
2023-04-02T12:12:55.534Z,53.74
2023-04-02T12:15:32.722Z,54.00
2023-04-02T12:18:21.374Z,53.96
2023-04-02T12:20:53.065Z,53.97
2023-04-02T12:23:22.547Z,54.01
2023-04-02T12:25:55.622Z,53.78
2023-04-02T12:28:29.431Z,53.23
2023-04-02T12:31:05.073Z,52.95
2023-04-02T12:33:37.144Z,52.63
2023-04-02T12:36:07.536Z,52.14
2023-04-02T12:38:39.680Z,52.09
2023-04-02T12:41:18.677Z,52.06
2023-04-02T12:43:46.565Z,51.78
2023-04-02T12:46:14.787Z,51.48
2023-04-02T12:48:42.591Z,51.54
2023-04-02T12:51:10.748Z,51.33
2023-04-02T12:53:40.201Z,51.26
2023-04-02T12:56:10.757Z,51.51
2023-04-02T12:58:40.430Z,51.60
2023-04-02T13:01:15.834Z,51.51
2023-04-02T13:03:44.222Z,51.27
2023-04-02T13:06:23.387Z,51.55
2023-04-02T13:08:51.373Z,51.65
2023-04-02T13:11:18.668Z,51.67
2023-04-02T13:13:47.171Z,52.18
2023-04-02T13:16:14.973Z,52.39
2023-04-02T13:18:43.405Z,52.28
2023-04-02T13:21:16.983Z,51.85
2023-04-02T13:23:44.678Z,51.93
2023-04-02T13:26:17.650Z,52.56
2023-04-02T13:29:18.028Z,52.84
2023-04-02T13:31:45.489Z,53.16
2023-04-02T13:34:12.858Z,53.10
2023-04-02T13:36:40.560Z,53.37
2023-04-02T13:39:07.860Z,53.55
2023-04-02T13:41:39.397Z,53.59
2023-04-02T13:44:07.150Z,53.86
2023-04-02T13:46:34.860Z,53.91
2023-04-02T13:49:02.620Z,53.76
2023-04-02T13:51:32.867Z,53.78
2023-04-02T13:54:00.300Z,53.63
2023-04-02T13:56:27.970Z,53.50
2023-04-02T13:58:55.320Z,53.27
2023-04-02T14:01:24.456Z,53.18
2023-04-02T14:03:52.452Z,53.30
2023-04-02T14:06:41.217Z,53.20
2023-04-02T14:09:27.410Z,53.32
2023-04-02T14:11:54.598Z,53.41
2023-04-02T14:14:28.094Z,53.50
2023-04-02T14:16:56.432Z,53.56
2023-04-02T14:19:46.468Z,53.55
2023-04-02T14:22:16.376Z,53.81
2023-04-02T14:24:49.541Z,53.87
2023-04-02T14:27:28.986Z,53.98
2023-04-02T14:30:02.058Z,53.91
2023-04-02T14:32:44.295Z,54.08
2023-04-02T14:35:18.436Z,54.06
2023-04-02T14:37:52.834Z,54.08
2023-04-02T14:40:38.509Z,53.99
2023-04-02T14:43:10.633Z,53.86
2023-04-02T14:45:37.996Z,53.86
2023-04-02T14:48:17.409Z,54.00
2023-04-02T14:50:44.895Z,53.94
2023-04-02T14:53:21.504Z,54.05
2023-04-02T14:55:49.867Z,54.13
2023-04-02T14:58:22.088Z,54.04
2023-04-02T15:00:58.355Z,54.07
2023-04-02T15:03:29.064Z,54.06
2023-04-02T15:05:56.629Z,54.08
2023-04-02T15:08:33.000Z,54.21
2023-04-02T15:11:08.279Z,54.01
2023-04-02T15:13:36.113Z,54.22
2023-04-02T15:16:23.723Z,54.19
2023-04-02T15:18:52.366Z,54.27
2023-04-02T15:21:29.921Z,54.26
2023-04-02T15:24:33.154Z,54.45
2023-04-02T15:27:24.537Z,54.28
2023-04-02T15:29:59.392Z,54.45
2023-04-02T15:32:34.072Z,54.63
2023-04-02T15:35:20.450Z,54.74
2023-04-02T15:37:58.135Z,54.74
2023-04-02T15:40:44.137Z,54.79
2023-04-02T15:43:19.072Z,54.89
2023-04-02T15:45:46.575Z,54.94
2023-04-02T15:48:33.139Z,55.02
2023-04-02T15:51:03.859Z,55.12
2023-04-02T15:53:31.268Z,55.17
2023-04-02T15:55:58.558Z,55.18
2023-04-02T15:58:44.818Z,55.10
2023-04-02T16:01:12.823Z,55.29
2023-04-02T16:04:01.403Z,55.38
2023-04-02T16:06:32.512Z,55.44
2023-04-02T16:09:09.235Z,55.46
2023-04-02T16:11:37.100Z,55.49
2023-04-02T16:14:10.292Z,55.51
2023-04-02T16:16:40.289Z,55.48
2023-04-02T16:19:26.308Z,55.47
2023-04-02T16:22:01.737Z,55.56
2023-04-02T16:24:29.237Z,55.58
2023-04-02T16:26:56.969Z,55.50
2023-04-02T16:29:27.388Z,55.66
2023-04-02T16:32:00.956Z,55.65
2023-04-02T16:34:39.467Z,55.69
2023-04-02T16:37:09.928Z,55.70
2023-04-02T16:39:40.357Z,55.87
2023-04-02T16:42:26.485Z,55.84
2023-04-02T16:45:09.471Z,55.95
2023-04-02T16:47:40.352Z,56.02
2023-04-02T16:50:07.739Z,56.09
2023-04-02T16:52:34.883Z,56.12
2023-04-02T16:55:11.814Z,56.24
2023-04-02T16:57:58.781Z,56.29
2023-04-02T17:00:35.010Z,56.24
2023-04-02T17:03:11.886Z,56.35
2023-04-02T17:05:56.659Z,56.25
2023-04-02T17:08:26.060Z,56.29
2023-04-02T17:11:00.810Z,56.29
2023-04-02T17:13:36.262Z,56.35
2023-04-02T17:16:06.646Z,56.30
2023-04-02T17:18:34.284Z,56.32
2023-04-02T17:21:06.750Z,56.33
2023-04-02T17:23:55.724Z,56.41
2023-04-02T17:26:34.806Z,56.54
2023-04-02T17:29:06.881Z,56.55
2023-04-02T17:31:35.533Z,56.58
2023-04-02T17:34:23.988Z,56.72
2023-04-02T17:37:10.180Z,56.80
2023-04-02T17:39:57.654Z,56.80
2023-04-02T17:42:33.527Z,56.87
2023-04-02T17:45:13.780Z,56.92
2023-04-02T17:47:46.648Z,56.89
2023-04-02T17:50:35.021Z,57.03
2023-04-02T17:53:11.690Z,56.90
2023-04-02T17:55:43.106Z,57.08
2023-04-02T17:58:22.695Z,56.97
2023-04-02T18:01:08.800Z,57.03
2023-04-02T18:03:58.316Z,57.04
2023-04-02T18:06:31.310Z,57.09
2023-04-02T18:09:06.813Z,57.04
2023-04-02T18:11:53.094Z,57.19
2023-04-02T18:14:39.856Z,57.12
2023-04-02T18:17:26.273Z,57.08
2023-04-02T18:20:17.211Z,57.05
2023-04-02T18:22:50.474Z,57.03
2023-04-02T18:25:32.239Z,57.10
2023-04-02T18:28:30.520Z,57.11
2023-04-02T18:31:24.994Z,57.15
2023-04-02T18:33:55.467Z,57.09
2023-04-02T18:36:23.805Z,57.04
2023-04-02T18:38:59.846Z,57.06
2023-04-02T18:41:44.134Z,56.97
2023-04-02T18:44:30.633Z,56.93
2023-04-02T18:47:08.201Z,56.94
2023-04-02T18:49:39.112Z,56.82
2023-04-02T18:52:17.689Z,56.88
2023-04-02T18:54:46.874Z,56.87
2023-04-02T18:57:26.548Z,56.87
2023-04-02T18:59:57.131Z,56.92
2023-04-02T19:02:27.912Z,56.91
2023-04-02T19:05:00.979Z,56.97
2023-04-02T19:07:43.817Z,56.89
2023-04-02T19:10:27.606Z,56.91
2023-04-02T19:12:55.126Z,56.91
2023-04-02T19:15:26.700Z,57.04
2023-04-02T19:18:20.330Z,56.95
2023-04-02T19:20:55.965Z,57.02
2023-04-02T19:23:32.656Z,56.84
2023-04-02T19:26:08.517Z,56.97
2023-04-02T19:28:52.913Z,56.96
2023-04-02T19:31:29.777Z,56.93
2023-04-02T19:33:57.142Z,56.97
2023-04-02T19:36:33.856Z,57.05
2023-04-02T19:39:21.172Z,56.95
2023-04-02T19:41:54.020Z,56.95
2023-04-02T19:44:21.963Z,57.15
2023-04-02T19:46:53.784Z,57.15
2023-04-02T19:49:29.206Z,57.33
2023-04-02T19:51:57.100Z,57.14
2023-04-02T19:54:24.430Z,57.15
2023-04-02T19:56:51.760Z,57.20
2023-04-02T19:59:19.264Z,57.15
2023-04-02T20:01:47.226Z,57.06
2023-04-02T20:04:15.061Z,57.05
2023-04-02T20:06:42.768Z,56.95
2023-04-02T20:09:10.420Z,56.96
2023-04-02T20:11:38.495Z,56.95
2023-04-02T20:14:06.480Z,57.04
2023-04-02T20:16:34.509Z,57.05
2023-04-02T20:19:01.912Z,56.94
2023-04-02T20:21:34.759Z,56.93
2023-04-02T20:24:02.195Z,57.03
2023-04-02T20:26:30.287Z,56.94
2023-04-02T20:28:58.103Z,57.07
2023-04-02T20:31:25.689Z,57.13
2023-04-02T20:33:57.843Z,57.05
2023-04-02T20:36:25.987Z,57.01
2023-04-02T20:38:53.600Z,57.25
2023-04-02T20:41:22.015Z,57.09
2023-04-02T20:43:50.113Z,57.06
2023-04-02T20:46:17.924Z,57.12
2023-04-02T20:48:46.753Z,57.16
2023-04-02T20:51:15.470Z,57.17
2023-04-02T20:53:46.864Z,57.12
2023-04-02T20:56:15.852Z,57.20
2023-04-02T20:58:43.581Z,57.11
2023-04-02T21:01:19.587Z,57.23
2023-04-02T21:03:47.650Z,57.18
2023-04-02T21:06:15.948Z,57.40
2023-04-02T21:08:43.468Z,57.24
2023-04-02T21:11:11.092Z,57.33
2023-04-02T21:13:38.740Z,57.34
2023-04-02T21:16:12.338Z,57.39
2023-04-02T21:18:40.562Z,57.42
2023-04-02T21:21:08.710Z,57.47
2023-04-02T21:23:36.120Z,57.40
2023-04-02T21:26:06.282Z,57.46
2023-04-02T21:28:35.126Z,57.39
2023-04-02T21:31:06.149Z,57.51
2023-04-02T21:33:38.628Z,57.34
2023-04-02T21:36:10.906Z,57.41
2023-04-02T21:38:41.834Z,57.49
2023-04-02T21:41:10.413Z,57.45
2023-04-02T21:43:38.848Z,57.45
2023-04-02T21:46:06.122Z,57.50
2023-04-02T21:48:33.739Z,57.45
2023-04-02T21:51:09.942Z,57.51
2023-04-02T21:53:37.956Z,57.50
2023-04-02T21:56:06.640Z,57.51
2023-04-02T21:58:33.983Z,57.55
2023-04-02T22:01:02.061Z,57.58
2023-04-02T22:03:32.087Z,57.53
2023-04-02T22:06:05.656Z,57.46
2023-04-02T22:08:34.236Z,57.48
2023-04-02T22:11:12.694Z,57.56
2023-04-02T22:13:41.162Z,57.75
2023-04-02T22:16:11.464Z,57.89
2023-04-02T22:18:39.398Z,57.96
2023-04-02T22:21:06.984Z,58.09
2023-04-02T22:23:35.053Z,58.14
2023-04-02T22:26:03.073Z,58.24
2023-04-02T22:28:30.751Z,58.21
2023-04-02T22:31:03.808Z,58.22
2023-04-02T22:33:32.681Z,58.19
2023-04-02T22:36:00.344Z,58.39
2023-04-02T22:38:28.216Z,58.41
2023-04-02T22:41:06.765Z,58.39
2023-04-02T22:43:35.171Z,58.58
2023-04-02T22:46:03.259Z,58.71
2023-04-02T22:48:30.842Z,58.68
2023-04-02T22:50:59.155Z,58.73
2023-04-02T22:53:26.882Z,58.79
2023-04-02T22:55:54.634Z,58.80
2023-04-02T22:58:22.769Z,58.85
2023-04-02T23:00:50.271Z,58.96
2023-04-02T23:03:17.818Z,58.97
2023-04-02T23:05:47.172Z,59.08
2023-04-02T23:08:14.553Z,59.16
2023-04-02T23:10:41.929Z,59.18
2023-04-02T23:13:09.580Z,59.22
2023-04-02T23:15:37.265Z,59.34
2023-04-02T23:18:05.001Z,59.29
2023-04-02T23:20:32.267Z,59.19
2023-04-02T23:22:59.516Z,59.18
2023-04-02T23:25:26.868Z,59.15
2023-04-02T23:27:54.486Z,59.11
2023-04-02T23:30:21.910Z,59.03
2023-04-02T23:32:49.424Z,59.08
2023-04-02T23:35:17.014Z,58.92
2023-04-02T23:37:44.598Z,58.88
2023-04-02T23:40:11.946Z,58.93
2023-04-02T23:42:39.637Z,58.89
2023-04-02T23:45:07.273Z,59.02
2023-04-02T23:47:34.979Z,58.85
2023-04-02T23:50:02.359Z,58.87
2023-04-02T23:52:30.430Z,58.86
2023-04-02T23:54:58.218Z,58.88
2023-04-02T23:57:25.927Z,59.02
2023-04-02T23:59:53.268Z,58.94
